sensor_id;sensor_type;location;lat;lon;timestamp;pressure;altitude;pressure_sealevel;temperature;humidity
67109;BME280;54027;50.786;7.058;2022-11-02T00:01:41;101234.53;;;19.08;59.61
67109;BME280;54027;50.786;7.058;2022-11-02T00:04:07;101237.13;;;19.10;59.56
67109;BME280;54027;50.786;7.058;2022-11-02T00:06:33;101227.50;;;19.09;59.59
67109;BME280;54027;50.786;7.058;2022-11-02T00:08:58;101232.75;;;19.09;59.67
67109;BME280;54027;50.786;7.058;2022-11-02T00:11:24;101228.34;;;19.09;59.45
67109;BME280;54027;50.786;7.058;2022-11-02T00:13:49;101230.13;;;19.09;59.61
67109;BME280;54027;50.786;7.058;2022-11-02T00:16:16;101239.81;;;19.08;59.57
67109;BME280;54027;50.786;7.058;2022-11-02T00:18:43;101243.28;;;19.09;59.53
67109;BME280;54027;50.786;7.058;2022-11-02T00:21:11;101235.41;;;19.09;59.66
67109;BME280;54027;50.786;7.058;2022-11-02T00:23:40;101220.44;;;19.09;59.26
67109;BME280;54027;50.786;7.058;2022-11-02T00:26:05;101224.00;;;19.08;59.71
67109;BME280;54027;50.786;7.058;2022-11-02T00:28:31;101230.06;;;19.10;59.45
67109;BME280;54027;50.786;7.058;2022-11-02T00:30:57;101228.25;;;19.11;59.56
67109;BME280;54027;50.786;7.058;2022-11-02T00:33:22;101223.94;;;19.10;59.47
67109;BME280;54027;50.786;7.058;2022-11-02T00:35:47;101232.75;;;19.09;59.47
67109;BME280;54027;50.786;7.058;2022-11-02T00:38:13;101227.50;;;19.09;59.52
67109;BME280;54027;50.786;7.058;2022-11-02T00:40:38;101235.50;;;19.07;59.46
67109;BME280;54027;50.786;7.058;2022-11-02T00:43:03;101230.13;;;19.09;59.53
67109;BME280;54027;50.786;7.058;2022-11-02T00:45:30;101237.13;;;19.10;59.54
67109;BME280;54027;50.786;7.058;2022-11-02T00:47:55;101240.66;;;19.09;59.67
67109;BME280;54027;50.786;7.058;2022-11-02T00:50:21;101236.25;;;19.09;59.56
67109;BME280;54027;50.786;7.058;2022-11-02T00:52:46;101232.69;;;19.10;59.45
67109;BME280;54027;50.786;7.058;2022-11-02T00:55:11;101236.31;;;19.08;59.73
67109;BME280;54027;50.786;7.058;2022-11-02T00:57:40;101232.00;;;19.07;59.41
67109;BME280;54027;50.786;7.058;2022-11-02T01:00:07;101240.66;;;19.09;59.58
67109;BME280;54027;50.786;7.058;2022-11-02T01:02:33;101233.63;;;19.09;59.45
67109;BME280;54027;50.786;7.058;2022-11-02T01:04:58;101233.78;;;19.06;59.46
67109;BME280;54027;50.786;7.058;2022-11-02T01:07:24;101240.66;;;19.09;59.37
67109;BME280;54027;50.786;7.058;2022-11-02T01:09:49;101245.94;;;19.09;59.39
67109;BME280;54027;50.786;7.058;2022-11-02T01:12:15;101237.25;;;19.07;59.32
67109;BME280;54027;50.786;7.058;2022-11-02T01:14:40;101238.94;;;19.08;59.33
67109;BME280;54027;50.786;7.058;2022-11-02T01:17:06;101235.50;;;19.07;59.28
67109;BME280;54027;50.786;7.058;2022-11-02T01:19:31;101240.81;;;19.06;59.41
67109;BME280;54027;50.786;7.058;2022-11-02T01:21:56;101249.47;;;19.08;59.27
67109;BME280;54027;50.786;7.058;2022-11-02T01:24:22;101246.06;;;19.06;59.31
67109;BME280;54027;50.786;7.058;2022-11-02T01:26:51;101246.00;;;19.07;59.32
67109;BME280;54027;50.786;7.058;2022-11-02T01:29:17;101244.22;;;19.08;59.39
67109;BME280;54027;50.786;7.058;2022-11-02T01:31:42;101242.53;;;19.07;59.39
67109;BME280;54027;50.786;7.058;2022-11-02T01:34:09;101239.94;;;19.05;59.48
67109;BME280;54027;50.786;7.058;2022-11-02T01:36:35;101239.03;;;19.06;59.21
67109;BME280;54027;50.786;7.058;2022-11-02T01:39:00;101241.66;;;19.06;59.21
67109;BME280;54027;50.786;7.058;2022-11-02T01:41:25;101249.47;;;19.08;59.27
67109;BME280;54027;50.786;7.058;2022-11-02T01:43:54;101249.56;;;19.06;59.31
67109;BME280;54027;50.786;7.058;2022-11-02T01:46:22;101250.47;;;19.05;59.06
67109;BME280;54027;50.786;7.058;2022-11-02T01:48:57;101256.59;;;19.06;59.25
67109;BME280;54027;50.786;7.058;2022-11-02T01:51:29;101246.94;;;19.06;59.29
67109;BME280;54027;50.786;7.058;2022-11-02T01:53:57;101244.34;;;19.05;59.20
67109;BME280;54027;50.786;7.058;2022-11-02T01:56:29;101249.56;;;19.06;59.08
67109;BME280;54027;50.786;7.058;2022-11-02T01:58:59;101249.63;;;19.05;59.18
67109;BME280;54027;50.786;7.058;2022-11-02T02:01:26;101252.25;;;19.05;59.03
67109;BME280;54027;50.786;7.058;2022-11-02T02:03:52;101257.63;;;19.03;59.15
67109;BME280;54027;50.786;7.058;2022-11-02T02:06:18;101258.47;;;19.04;59.26
67109;BME280;54027;50.786;7.058;2022-11-02T02:08:46;101262.72;;;19.06;58.83
67109;BME280;54027;50.786;7.058;2022-11-02T02:11:26;101258.38;;;19.05;59.01
67109;BME280;54027;50.786;7.058;2022-11-02T02:13:58;101249.56;;;19.06;59.19
67109;BME280;54027;50.786;7.058;2022-11-02T02:25:24;101250.56;;;19.04;58.94
67109;BME280;54027;50.786;7.058;2022-11-02T02:30:43;101239.25;;;19.02;58.90
67109;BME280;54027;50.786;7.058;2022-11-02T02:33:15;101241.03;;;19.01;58.73
67109;BME280;54027;50.786;7.058;2022-11-02T02:35:47;101241.81;;;19.03;58.75
67109;BME280;54027;50.786;7.058;2022-11-02T02:41:43;101252.34;;;19.03;58.80
67109;BME280;54027;50.786;7.058;2022-11-02T02:43:56;101254.22;;;19.01;58.86
67109;BME280;54027;50.786;7.058;2022-11-02T02:46:36;101252.34;;;19.03;58.89
67109;BME280;54027;50.786;7.058;2022-11-02T02:49:06;101245.38;;;19.02;58.80
67109;BME280;54027;50.786;7.058;2022-11-02T02:51:36;101252.50;;;19.00;58.96
67109;BME280;54027;50.786;7.058;2022-11-02T02:54:05;101241.09;;;19.00;58.78
67109;BME280;54027;50.786;7.058;2022-11-02T02:56:45;101238.41;;;19.01;58.88
67109;BME280;54027;50.786;7.058;2022-11-02T02:59:31;101241.97;;;19.00;59.00
67109;BME280;54027;50.786;7.058;2022-11-02T03:01:57;101240.19;;;19.01;59.04
67109;BME280;54027;50.786;7.058;2022-11-02T03:04:23;101243.69;;;19.01;58.75
67109;BME280;54027;50.786;7.058;2022-11-02T03:06:52;101242.81;;;19.01;59.02
67109;BME280;54027;50.786;7.058;2022-11-02T03:23:35;101249.09;;;18.98;58.81
67109;BME280;54027;50.786;7.058;2022-11-02T03:28:58;101256.13;;;18.98;58.71
67109;BME280;54027;50.786;7.058;2022-11-02T03:34:23;101269.22;;;18.99;58.63
67109;BME280;54027;50.786;7.058;2022-11-02T03:39:43;101263.09;;;18.99;58.87
67109;BME280;54027;50.786;7.058;2022-11-02T03:42:12;101276.19;;;19.00;58.42
67109;BME280;54027;50.786;7.058;2022-11-02T03:44:40;101269.16;;;19.01;58.79
67109;BME280;54027;50.786;7.058;2022-11-02T03:47:08;101274.47;;;18.99;58.64
67109;BME280;54027;50.786;7.058;2022-11-02T03:49:38;101277.97;;;19.00;58.76
67109;BME280;54027;50.786;7.058;2022-11-02T03:52:08;101285.88;;;19.00;58.40
67109;BME280;54027;50.786;7.058;2022-11-02T03:54:39;101285.09;;;18.98;58.76
67109;BME280;54027;50.786;7.058;2022-11-02T03:57:09;101281.66;;;18.96;58.79
67109;BME280;54027;50.786;7.058;2022-11-02T03:59:36;101285.09;;;18.98;58.81
67109;BME280;54027;50.786;7.058;2022-11-02T04:02:01;101289.41;;;18.99;59.31
67109;BME280;54027;50.786;7.058;2022-11-02T04:04:27;101292.91;;;18.99;58.69
67109;BME280;54027;50.786;7.058;2022-11-02T04:06:52;101300.91;;;18.98;58.76
67109;BME280;54027;50.786;7.058;2022-11-02T04:09:18;101295.63;;;18.98;58.78
67109;BME280;54027;50.786;7.058;2022-11-02T04:11:43;101298.25;;;18.98;58.76
67109;BME280;54027;50.786;7.058;2022-11-02T04:14:27;101307.78;;;19.00;58.62
67109;BME280;54027;50.786;7.058;2022-11-02T04:17:03;101313.97;;;18.99;58.77
67109;BME280;54027;50.786;7.058;2022-11-02T04:19:48;101319.31;;;18.98;58.72
67109;BME280;54027;50.786;7.058;2022-11-02T04:22:13;101321.09;;;18.97;58.82
67109;BME280;54027;50.786;7.058;2022-11-02T04:24:56;101326.38;;;18.97;58.82
67109;BME280;54027;50.786;7.058;2022-11-02T04:27:40;101321.97;;;18.98;58.63
67109;BME280;54027;50.786;7.058;2022-11-02T04:30:06;101329.00;;;18.97;58.72
67109;BME280;54027;50.786;7.058;2022-11-02T04:32:43;101325.59;;;18.95;58.80
67109;BME280;54027;50.786;7.058;2022-11-02T04:35:28;101334.31;;;18.96;58.63
67109;BME280;54027;50.786;7.058;2022-11-02T04:37:54;101324.66;;;18.96;58.77
67109;BME280;54027;50.786;7.058;2022-11-02T04:40:38;101340.44;;;18.96;58.73
67109;BME280;54027;50.786;7.058;2022-11-02T04:43:03;101340.38;;;18.98;58.60
67109;BME280;54027;50.786;7.058;2022-11-02T04:45:29;101349.16;;;18.98;58.57
67109;BME280;54027;50.786;7.058;2022-11-02T04:48:08;101351.84;;;18.97;58.68
67109;BME280;54027;50.786;7.058;2022-11-02T04:50:34;101361.50;;;18.96;58.50
67109;BME280;54027;50.786;7.058;2022-11-02T04:53:01;101356.31;;;18.95;58.72
67109;BME280;54027;50.786;7.058;2022-11-02T04:55:28;101360.66;;;18.96;58.67
67109;BME280;54027;50.786;7.058;2022-11-02T04:57:54;101361.59;;;18.95;58.54
67109;BME280;54027;50.786;7.058;2022-11-02T05:00:20;101364.22;;;18.95;58.45
67109;BME280;54027;50.786;7.058;2022-11-02T05:02:49;101365.91;;;18.96;58.58
67109;BME280;54027;50.786;7.058;2022-11-02T05:05:16;101364.22;;;18.95;58.65
67109;BME280;54027;50.786;7.058;2022-11-02T05:07:42;101379.16;;;18.94;58.50
67109;BME280;54027;50.786;7.058;2022-11-02T05:10:08;101374.75;;;18.95;58.60
67109;BME280;54027;50.786;7.058;2022-11-02T05:12:33;101370.25;;;18.97;58.45
67109;BME280;54027;50.786;7.058;2022-11-02T05:14:59;101372.13;;;18.95;58.48
67109;BME280;54027;50.786;7.058;2022-11-02T05:17:24;101379.06;;;18.96;58.42
67109;BME280;54027;50.786;7.058;2022-11-02T05:19:49;101380.94;;;18.94;58.66
67109;BME280;54027;50.786;7.058;2022-11-02T05:22:15;101387.13;;;18.93;58.61
67109;BME280;54027;50.786;7.058;2022-11-02T05:24:40;101392.38;;;18.93;58.76
67109;BME280;54027;50.786;7.058;2022-11-02T05:27:05;101396.72;;;18.94;58.52
67109;BME280;54027;50.786;7.058;2022-11-02T05:29:31;101395.81;;;18.95;58.45
67109;BME280;54027;50.786;7.058;2022-11-02T05:31:56;101388.78;;;18.95;58.39
67109;BME280;54027;50.786;7.058;2022-11-02T05:34:22;101399.22;;;18.97;58.43
67109;BME280;54027;50.786;7.058;2022-11-02T05:36:47;101394.97;;;18.94;58.23
67109;BME280;54027;50.786;7.058;2022-11-02T05:39:13;101395.88;;;18.93;58.55
67109;BME280;54027;50.786;7.058;2022-11-02T05:41:38;101402.91;;;18.93;58.36
67109;BME280;54027;50.786;7.058;2022-11-02T05:44:04;101402.00;;;18.94;58.30
67109;BME280;54027;50.786;7.058;2022-11-02T05:46:29;101403.63;;;18.96;58.23
67109;BME280;54027;50.786;7.058;2022-11-02T05:48:55;101408.00;;;18.97;58.21
67109;BME280;54027;50.786;7.058;2022-11-02T05:51:20;101415.81;;;18.99;57.97
67109;BME280;54027;50.786;7.058;2022-11-02T05:53:45;101412.97;;;19.03;58.08
67109;BME280;54027;50.786;7.058;2022-11-02T05:56:11;101418.25;;;19.03;58.05
67109;BME280;54027;50.786;7.058;2022-11-02T05:58:39;101426.00;;;19.06;58.09
67109;BME280;54027;50.786;7.058;2022-11-02T06:01:05;101426.84;;;19.07;57.93
67109;BME280;54027;50.786;7.058;2022-11-02T06:03:31;101431.13;;;19.09;58.21
67109;BME280;54027;50.786;7.058;2022-11-02T06:05:58;101433.91;;;19.06;57.99
67109;BME280;54027;50.786;7.058;2022-11-02T06:08:24;101437.31;;;19.08;57.84
67109;BME280;54027;50.786;7.058;2022-11-02T06:10:50;101442.56;;;19.08;57.90
67109;BME280;54027;50.786;7.058;2022-11-02T06:13:15;101444.34;;;19.08;57.88
67109;BME280;54027;50.786;7.058;2022-11-02T06:15:41;101450.41;;;19.10;58.05
67109;BME280;54027;50.786;7.058;2022-11-02T06:18:06;101454.75;;;19.11;57.94
67109;BME280;54027;50.786;7.058;2022-11-02T06:20:32;101454.41;;;19.18;58.04
67109;BME280;54027;50.786;7.058;2022-11-02T06:22:57;101461.69;;;19.32;58.04
67109;BME280;54027;50.786;7.058;2022-11-02T06:25:23;101459.00;;;19.34;57.82
67109;BME280;54027;50.786;7.058;2022-11-02T06:27:53;101470.94;;;19.41;57.79
67109;BME280;54027;50.786;7.058;2022-11-02T06:30:21;101467.84;;;19.51;57.32
67109;BME280;54027;50.786;7.058;2022-11-02T06:32:51;101475.78;;;19.50;57.62
67109;BME280;54027;50.786;7.058;2022-11-02T06:35:18;101475.59;;;19.54;58.20
67109;BME280;54027;50.786;7.058;2022-11-02T06:37:44;101478.00;;;19.59;58.29
67109;BME280;54027;50.786;7.058;2022-11-02T06:40:11;101491.84;;;19.64;58.13
67109;BME280;54027;50.786;7.058;2022-11-02T06:42:37;101488.97;;;19.68;58.28
67109;BME280;54027;50.786;7.058;2022-11-02T06:45:03;101488.06;;;19.69;58.67
67109;BME280;54027;50.786;7.058;2022-11-02T06:47:33;101492.47;;;19.69;58.68
67109;BME280;54027;50.786;7.058;2022-11-02T06:49:59;101501.09;;;19.72;57.93
67109;BME280;54027;50.786;7.058;2022-11-02T06:52:25;101497.38;;;19.76;57.82
67109;BME280;54027;50.786;7.058;2022-11-02T06:54:51;101508.00;;;19.75;58.00
67109;BME280;54027;50.786;7.058;2022-11-02T06:57:16;101508.06;;;19.73;58.03
67109;BME280;54027;50.786;7.058;2022-11-02T06:59:41;101515.75;;;19.78;57.73
67109;BME280;54027;50.786;7.058;2022-11-02T07:02:08;101527.38;;;19.74;58.17
67109;BME280;54027;50.786;7.058;2022-11-02T07:04:33;101526.44;;;19.75;57.67
67109;BME280;54027;50.786;7.058;2022-11-02T07:06:59;101528.38;;;19.71;57.75
67109;BME280;54027;50.786;7.058;2022-11-02T07:09:24;101536.56;;;19.65;57.98
67109;BME280;54027;50.786;7.058;2022-11-02T07:11:49;101536.13;;;19.74;57.77
67109;BME280;54027;50.786;7.058;2022-11-02T07:14:15;101544.63;;;19.81;58.07
67109;BME280;54027;50.786;7.058;2022-11-02T07:16:40;101545.09;;;19.89;58.02
67109;BME280;54027;50.786;7.058;2022-11-02T07:19:05;101540.72;;;20.08;57.99
67109;BME280;54027;50.786;7.058;2022-11-02T07:21:31;101537.25;;;20.06;58.06
67109;BME280;54027;50.786;7.058;2022-11-02T07:23:56;101550.50;;;20.05;58.08
67109;BME280;54027;50.786;7.058;2022-11-02T07:26:23;101557.56;;;20.04;58.59
67109;BME280;54027;50.786;7.058;2022-11-02T07:28:48;101550.66;;;20.02;57.89
67109;BME280;54027;50.786;7.058;2022-11-02T07:31:13;101557.41;;;20.07;58.34
67109;BME280;54027;50.786;7.058;2022-11-02T07:33:39;101560.13;;;20.24;58.56
67109;BME280;54027;50.786;7.058;2022-11-02T07:36:04;101566.13;;;20.28;58.43
67109;BME280;54027;50.786;7.058;2022-11-02T07:38:30;101569.63;;;20.28;57.88
67109;BME280;54027;50.786;7.058;2022-11-02T07:40:55;101578.97;;;20.17;57.77
67109;BME280;54027;50.786;7.058;2022-11-02T07:43:21;101588.56;;;20.18;58.61
67109;BME280;54027;50.786;7.058;2022-11-02T07:45:47;101586.03;;;20.16;57.25
67109;BME280;54027;50.786;7.058;2022-11-02T07:48:12;101591.59;;;20.10;57.74
67109;BME280;54027;50.786;7.058;2022-11-02T07:50:38;101589.91;;;20.26;58.41
67109;BME280;54027;50.786;7.058;2022-11-02T07:53:03;101595.25;;;20.44;58.37
67109;BME280;54027;50.786;7.058;2022-11-02T07:55:29;101607.19;;;20.51;58.13
67109;BME280;54027;50.786;7.058;2022-11-02T07:58:09;101607.06;;;20.54;58.54
67109;BME280;54027;50.786;7.058;2022-11-02T08:00:37;101624.81;;;20.50;58.91
67109;BME280;54027;50.786;7.058;2022-11-02T08:03:04;101621.97;;;20.55;58.92
67109;BME280;54027;50.786;7.058;2022-11-02T08:05:32;101622.19;;;20.50;58.81
67109;BME280;54027;50.786;7.058;2022-11-02T08:08:10;101618.63;;;20.51;58.64
67109;BME280;54027;50.786;7.058;2022-11-02T08:10:36;101617.69;;;20.35;56.67
67109;BME280;54027;50.786;7.058;2022-11-02T08:13:02;101625.78;;;19.93;58.32
67109;BME280;54027;50.786;7.058;2022-11-02T08:15:27;101629.28;;;19.75;58.23
67109;BME280;54027;50.786;7.058;2022-11-02T08:20:28;101639.09;;;19.71;58.60
67109;BME280;54027;50.786;7.058;2022-11-02T08:22:54;101638.31;;;19.69;58.97
67109;BME280;54027;50.786;7.058;2022-11-02T08:25:19;101646.22;;;19.69;59.02
67109;BME280;54027;50.786;7.058;2022-11-02T08:27:44;101643.44;;;19.72;59.22
67109;BME280;54027;50.786;7.058;2022-11-02T08:30:10;101645.66;;;20.00;59.15
67109;BME280;54027;50.786;7.058;2022-11-02T08:32:35;101652.56;;;20.03;59.15
67109;BME280;54027;50.786;7.058;2022-11-02T08:35:01;101649.88;;;20.04;59.37
67109;BME280;54027;50.786;7.058;2022-11-02T08:37:26;101654.66;;;19.96;58.34
67109;BME280;54027;50.786;7.058;2022-11-02T08:39:52;101656.44;;;19.96;58.74
67109;BME280;54027;50.786;7.058;2022-11-02T08:42:17;101649.66;;;19.90;57.99
67109;BME280;54027;50.786;7.058;2022-11-02T08:44:42;101658.72;;;20.03;59.11
67109;BME280;54027;50.786;7.058;2022-11-02T08:47:08;101661.59;;;20.17;58.72
67109;BME280;54027;50.786;7.058;2022-11-02T08:49:33;101663.16;;;20.21;59.40
67109;BME280;54027;50.786;7.058;2022-11-02T08:51:59;101663.94;;;20.23;58.87
67109;BME280;54027;50.786;7.058;2022-11-02T08:54:24;101666.03;;;20.17;58.67
67109;BME280;54027;50.786;7.058;2022-11-02T08:56:49;101663.44;;;20.15;58.53
67109;BME280;54027;50.786;7.058;2022-11-02T08:59:15;101667.88;;;20.15;58.62
67109;BME280;54027;50.786;7.058;2022-11-02T09:01:40;101671.09;;;20.21;58.23
67109;BME280;54027;50.786;7.058;2022-11-02T09:04:05;101675.50;;;20.21;58.23
67109;BME280;54027;50.786;7.058;2022-11-02T09:06:31;101679.84;;;20.22;58.18
67109;BME280;54027;50.786;7.058;2022-11-02T09:08:56;101676.50;;;20.18;58.25
67109;BME280;54027;50.786;7.058;2022-11-02T09:11:21;101681.91;;;20.15;58.40
67109;BME280;54027;50.786;7.058;2022-11-02T09:13:47;101679.28;;;20.15;58.14
67109;BME280;54027;50.786;7.058;2022-11-02T09:16:12;101687.28;;;20.14;58.19
67109;BME280;54027;50.786;7.058;2022-11-02T09:18:38;101682.00;;;20.14;58.35
67109;BME280;54027;50.786;7.058;2022-11-02T09:21:04;101690.78;;;20.14;58.40
67109;BME280;54027;50.786;7.058;2022-11-02T09:23:30;101687.41;;;20.11;58.35
67109;BME280;54027;50.786;7.058;2022-11-02T09:25:56;101688.44;;;20.07;58.45
67109;BME280;54027;50.786;7.058;2022-11-02T09:28:22;101689.25;;;20.09;58.44
67109;BME280;54027;50.786;7.058;2022-11-02T09:30:48;101688.41;;;20.08;58.48
67109;BME280;54027;50.786;7.058;2022-11-02T09:33:13;101684.09;;;20.06;58.61
67109;BME280;54027;50.786;7.058;2022-11-02T09:35:43;101693.81;;;20.05;58.42
67109;BME280;54027;50.786;7.058;2022-11-02T09:38:08;101692.13;;;20.03;58.36
67109;BME280;54027;50.786;7.058;2022-11-02T09:40:40;101693.94;;;20.02;58.29
67109;BME280;54027;50.786;7.058;2022-11-02T09:45:35;101698.41;;;20.00;58.59
67109;BME280;54027;50.786;7.058;2022-11-02T09:48:13;101697.63;;;19.98;58.68
67109;BME280;54027;50.786;7.058;2022-11-02T09:51:07;101688.09;;;19.96;58.58
67109;BME280;54027;50.786;7.058;2022-11-02T09:56:17;101693.38;;;19.96;58.69
67109;BME280;54027;50.786;7.058;2022-11-02T09:58:48;101705.19;;;19.87;59.16
67109;BME280;54027;50.786;7.058;2022-11-02T10:07:28;101704.47;;;19.84;59.11
67109;BME280;54027;50.786;7.058;2022-11-02T10:09:59;101708.38;;;19.75;58.56
67109;BME280;54027;50.786;7.058;2022-11-02T10:12:49;101711.44;;;19.85;59.12
67109;BME280;54027;50.786;7.058;2022-11-02T10:15:36;101714.00;;;19.86;59.71
67109;BME280;54027;50.786;7.058;2022-11-02T10:18:03;101718.88;;;19.95;59.11
67109;BME280;54027;50.786;7.058;2022-11-02T10:20:37;101712.47;;;20.01;59.51
67109;BME280;54027;50.786;7.058;2022-11-02T10:23:07;101717.00;;;19.97;59.11
67109;BME280;54027;50.786;7.058;2022-11-02T10:25:34;101723.00;;;20.01;59.50
67109;BME280;54027;50.786;7.058;2022-11-02T10:28:10;101720.31;;;20.02;59.00
67109;BME280;54027;50.786;7.058;2022-11-02T10:30:38;101720.31;;;20.02;59.50
67109;BME280;54027;50.786;7.058;2022-11-02T10:33:16;101715.47;;;19.93;58.90
67109;BME280;54027;50.786;7.058;2022-11-02T10:35:55;101718.28;;;19.89;59.18
67109;BME280;54027;50.786;7.058;2022-11-02T10:46:40;101719.88;;;19.93;59.89
67109;BME280;54027;50.786;7.058;2022-11-02T10:51:40;101713.78;;;19.91;59.38
67109;BME280;54027;50.786;7.058;2022-11-02T10:54:15;101713.16;;;19.86;58.91
67109;BME280;54027;50.786;7.058;2022-11-02T10:56:41;101717.78;;;19.80;59.35
67109;BME280;54027;50.786;7.058;2022-11-02T10:59:15;101721.53;;;19.75;59.41
67109;BME280;54027;50.786;7.058;2022-11-02T11:04:23;101719.69;;;19.77;59.10
67109;BME280;54027;50.786;7.058;2022-11-02T11:06:49;101725.41;;;19.87;59.83
67109;BME280;54027;50.786;7.058;2022-11-02T11:09:19;101722.00;;;19.85;60.44
67109;BME280;54027;50.786;7.058;2022-11-02T11:12:05;101713.63;;;19.75;59.13
67109;BME280;54027;50.786;7.058;2022-11-02T11:14:46;101716.88;;;19.82;59.41
67109;BME280;54027;50.786;7.058;2022-11-02T11:17:17;101717.06;;;19.77;59.71
67109;BME280;54027;50.786;7.058;2022-11-02T11:19:53;101716.78;;;19.83;59.69
67109;BME280;54027;50.786;7.058;2022-11-02T11:22:34;101716.13;;;19.78;59.57
67109;BME280;54027;50.786;7.058;2022-11-02T11:27:52;101710.72;;;19.81;59.72
67109;BME280;54027;50.786;7.058;2022-11-02T11:30:35;101719.69;;;19.77;60.24
67109;BME280;54027;50.786;7.058;2022-11-02T11:33:03;101718.41;;;19.86;60.90
67109;BME280;54027;50.786;7.058;2022-11-02T11:35:33;101721.31;;;19.79;59.88
67109;BME280;54027;50.786;7.058;2022-11-02T11:40:34;101715.28;;;19.77;59.45
67109;BME280;54027;50.786;7.058;2022-11-02T11:43:01;101722.31;;;19.77;61.21
67109;BME280;54027;50.786;7.058;2022-11-02T11:45:30;101725.03;;;19.75;60.70
67109;BME280;54027;50.786;7.058;2022-11-02T11:51:01;101705.78;;;19.73;59.74
67109;BME280;54027;50.786;7.058;2022-11-02T11:53:27;101705.59;;;19.78;59.68
67109;BME280;54027;50.786;7.058;2022-11-02T11:55:58;101704.88;;;19.74;59.23
67109;BME280;54027;50.786;7.058;2022-11-02T11:58:33;101705.47;;;19.81;61.32
67109;BME280;54027;50.786;7.058;2022-11-02T12:03:53;101705.25;;;19.65;59.57
67109;BME280;54027;50.786;7.058;2022-11-02T12:15:21;101683.53;;;19.60;59.93
67109;BME280;54027;50.786;7.058;2022-11-02T12:21:17;101680.03;;;19.60;60.04
67109;BME280;54027;50.786;7.058;2022-11-02T12:24:11;101684.97;;;19.67;60.43
67109;BME280;54027;50.786;7.058;2022-11-02T12:32:29;101678.13;;;19.82;59.40
67109;BME280;54027;50.786;7.058;2022-11-02T12:38:11;101668.59;;;19.79;59.17
67109;BME280;54027;50.786;7.058;2022-11-02T12:43:37;101662.31;;;19.82;59.09
67109;BME280;54027;50.786;7.058;2022-11-02T12:46:12;101656.22;;;19.82;59.13
67109;BME280;54027;50.786;7.058;2022-11-02T12:51:43;101652.06;;;19.76;59.19
67109;BME280;54027;50.786;7.058;2022-11-02T12:54:25;101647.72;;;19.75;59.12
67109;BME280;54027;50.786;7.058;2022-11-02T12:56:53;101648.63;;;19.74;59.03
67109;BME280;54027;50.786;7.058;2022-11-02T12:59:22;101653.00;;;19.75;59.02
67109;BME280;54027;50.786;7.058;2022-11-02T13:02:02;101654.03;;;19.71;58.91
67109;BME280;54027;50.786;7.058;2022-11-02T13:04:44;101653.13;;;19.72;59.14
67109;BME280;54027;50.786;7.058;2022-11-02T13:07:18;101650.50;;;19.72;59.16
67109;BME280;54027;50.786;7.058;2022-11-02T13:12:18;101645.28;;;19.70;59.19
67109;BME280;54027;50.786;7.058;2022-11-02T13:14:47;101647.13;;;19.68;59.19
67109;BME280;54027;50.786;7.058;2022-11-02T13:17:19;101650.69;;;19.67;59.08
67109;BME280;54027;50.786;7.058;2022-11-02T13:19:53;101649.63;;;19.71;59.28
67109;BME280;54027;50.786;7.058;2022-11-02T13:22:22;101643.63;;;19.68;59.56
67109;BME280;54027;50.786;7.058;2022-11-02T13:24:54;101633.81;;;19.71;59.36
67109;BME280;54027;50.786;7.058;2022-11-02T13:27:31;101643.63;;;19.68;59.29
67109;BME280;54027;50.786;7.058;2022-11-02T13:30:00;101639.00;;;19.73;59.54
67109;BME280;54027;50.786;7.058;2022-11-02T13:35:04;101645.38;;;19.69;60.08
67109;BME280;54027;50.786;7.058;2022-11-02T13:37:38;101641.41;;;19.59;59.44
67109;BME280;54027;50.786;7.058;2022-11-02T13:40:13;101632.63;;;19.78;59.69
67109;BME280;54027;50.786;7.058;2022-11-02T13:43:07;101637.63;;;19.64;59.33
67109;BME280;54027;50.786;7.058;2022-11-02T13:48:27;101628.91;;;19.64;59.37
67109;BME280;54027;50.786;7.058;2022-11-02T13:51:03;101629.72;;;19.64;59.54
67109;BME280;54027;50.786;7.058;2022-11-02T13:53:35;101624.03;;;19.55;59.57
67109;BME280;54027;50.786;7.058;2022-11-02T13:56:11;101626.41;;;19.61;59.68
67109;BME280;54027;50.786;7.058;2022-11-02T13:58:54;101633.09;;;19.68;59.82
67109;BME280;54027;50.786;7.058;2022-11-02T14:01:21;101624.00;;;19.75;59.30
67109;BME280;54027;50.786;7.058;2022-11-02T14:03:53;101617.13;;;19.71;59.22
67109;BME280;54027;50.786;7.058;2022-11-02T14:06:21;101621.97;;;19.61;59.86
67109;BME280;54027;50.786;7.058;2022-11-02T14:26:57;101611.38;;;19.63;60.09
67109;BME280;54027;50.786;7.058;2022-11-02T14:41:03;101606.50;;;19.54;59.64
67109;BME280;54027;50.786;7.058;2022-11-02T14:48:49;101606.44;;;19.55;59.45
67109;BME280;54027;50.786;7.058;2022-11-02T14:51:22;101599.38;;;19.56;59.89
67109;BME280;54027;50.786;7.058;2022-11-02T14:53:55;101610.66;;;19.59;59.61
67109;BME280;54027;50.786;7.058;2022-11-02T14:56:21;101604.50;;;19.59;59.53
67109;BME280;54027;50.786;7.058;2022-11-02T14:58:53;101600.19;;;19.58;58.98
67109;BME280;54027;50.786;7.058;2022-11-02T15:01:21;101608.78;;;19.61;59.34
67109;BME280;54027;50.786;7.058;2022-11-02T15:03:48;101609.72;;;19.60;59.73
67109;BME280;54027;50.786;7.058;2022-11-02T15:06:19;101597.41;;;19.61;59.60
67109;BME280;54027;50.786;7.058;2022-11-02T15:16:56;101594.63;;;19.64;60.54
67109;BME280;54027;50.786;7.058;2022-11-02T15:19:35;101580.75;;;19.60;58.37
67109;BME280;54027;50.786;7.058;2022-11-02T15:24:58;101579.38;;;19.52;59.11
67109;BME280;54027;50.786;7.058;2022-11-02T15:27:25;101580.28;;;19.51;59.72
67109;BME280;54027;50.786;7.058;2022-11-02T15:29:52;101577.84;;;19.46;58.87
67109;BME280;54027;50.786;7.058;2022-11-02T15:32:21;101577.84;;;19.46;58.80
67109;BME280;54027;50.786;7.058;2022-11-02T15:34:51;101579.44;;;19.50;59.29
67109;BME280;54027;50.786;7.058;2022-11-02T15:37:29;101580.44;;;19.48;58.99